Perry, Ohio
Current Conditions -  °F | °C
As of 7:15 AM on Tuesday 27 Jan 2015 (Local Time) from KLNN Reporting Station
Overcast Overcast  
Wind Chill:   Ceiling: 1100
Heat Index: 17°   Visibility: 10mi
Dew Point: 13°   Wind: 9mph
Humidity: 83%   Direction: 50°NE
Pressure: 29.99"   Gusts: NA
Location:  41.76°N, 81.14°W
Report Text: KLNN 271215Z AUTO 05008KT 10SM BKN011 OVC065 M08/M11 A2999 RMK AO1 T10821106
Loading
Personal Weather Stations






























Interactive Weather Map New forecast layout! Learn more

10-Day Weather Forecast

Advertisements
Track Severe Weather on mobile